^^
Your Local Weather - Clay, NY Station Historical Data
Daily Summary for July 1, 2017 Units:  English    Metric   Both
« Previous Day
Next Day »
Daily Weekly Monthly Yearly Custom
  High: Low: Average:
Temperature: 77.4 °F 64.8 °F 69.6 °F
Dew Point: 71.4 °F 63.0 °F 66 °F
Humidity: 95% 72% 89%
Wind Speed: 4.0mph 0.0mph 1mph
Wind Gust: 10.0mph - -
Wind- - South
Pressure: 29.85 in 29.74 in -
Precipitation: 0.95 in    
Historical Graphs
 
 
Tabular Data for July 1, 2017
Time Temperature Dew Point Pressure Wind Wind Speed Wind Gust Humidity Rainfall Rate (Hourly) solar
00:02 66.0 °F 63.9 °F 29.84 in Calm     93% 0.00 in 0 W/m2
00:08 65.8 °F 63.7 °F 29.85 in Calm     93% 0.00 in 0 W/m2
00:14 65.8 °F 63.7 °F 29.84 in Calm     93% 0.00 in 0 W/m2
00:20 65.7 °F 63.9 °F 29.84 in Calm     94% 0.00 in 0 W/m2
00:26 65.7 °F 63.9 °F 29.83 in Calm     94% 0.00 in 0 W/m2
00:32 65.6 °F 63.8 °F 29.83 in Calm   2.0 mph 94% 0.00 in 0 W/m2
00:38 66.1 °F 64.3 °F 29.83 in Calm   2.0 mph 94% 0.00 in 0 W/m2
00:44 66.2 °F 64.4 °F 29.83 in Calm     94% 0.00 in 0 W/m2
00:50 66.3 °F 64.5 °F 29.83 in Calm     94% 0.00 in 0 W/m2
00:56 66.1 °F 64.3 °F 29.83 in Calm     94% 0.00 in 0 W/m2
01:02 66.2 °F 64.4 °F 29.83 in Calm     94% 0.00 in 0 W/m2
01:08 65.9 °F 64.1 °F 29.83 in Calm     94% 0.00 in 0 W/m2
01:14 66.0 °F 64.2 °F 29.83 in Calm     94% 0.00 in 0 W/m2
01:20 66.1 °F 64.3 °F 29.83 in Calm     94% 0.00 in 0 W/m2
01:26 66.2 °F 64.4 °F 29.83 in Calm     94% 0.00 in 0 W/m2
01:32 66.1 °F 64.3 °F 29.83 in Calm     94% 0.00 in 0 W/m2
01:38 66.0 °F 64.2 °F 29.83 in Calm     94% 0.00 in 0 W/m2
01:44 66.0 °F 64.2 °F 29.83 in Calm     94% 0.00 in 0 W/m2
01:50 65.7 °F 63.9 °F 29.83 in Calm     94% 0.00 in 0 W/m2
01:56 65.7 °F 63.9 °F 29.83 in Calm   1.0 mph 94% 0.00 in 0 W/m2
02:02 65.8 °F 64.0 °F 29.82 in Calm     94% 0.00 in 0 W/m2
02:08 65.8 °F 64.0 °F 29.82 in Calm     94% 0.00 in 0 W/m2
02:14 65.8 °F 64.0 °F 29.82 in Calm     94% 0.00 in 0 W/m2
02:20 65.8 °F 64.0 °F 29.82 in Calm     94% 0.00 in 0 W/m2
02:26 65.9 °F 64.1 °F 29.82 in Calm     94% 0.00 in 0 W/m2
02:32 65.8 °F 64.0 °F 29.82 in Calm     94% 0.00 in 0 W/m2
02:38 65.8 °F 64.0 °F 29.82 in Calm     94% 0.00 in 0 W/m2
02:44 65.6 °F 63.8 °F 29.81 in Calm     94% 0.00 in 0 W/m2
02:50 65.6 °F 63.8 °F 29.81 in Calm     94% 0.00 in 0 W/m2
02:56 65.6 °F 63.8 °F 29.81 in Calm     94% 0.00 in 0 W/m2
03:02 65.6 °F 63.8 °F 29.81 in Calm     94% 0.00 in 0 W/m2
03:08 65.6 °F 63.8 °F 29.81 in Calm     94% 0.00 in 0 W/m2
03:14 65.5 °F 63.7 °F 29.80 in Calm     94% 0.00 in 0 W/m2
03:20 65.4 °F 63.6 °F 29.80 in Calm   1.0 mph 94% 0.00 in 0 W/m2
03:26 65.2 °F 63.4 °F 29.81 in Calm   1.0 mph 94% 0.00 in 0 W/m2
03:32 65.1 °F 63.3 °F 29.80 in Calm     94% 0.00 in 0 W/m2
03:38 65.1 °F 63.3 °F 29.80 in Calm     94% 0.00 in 0 W/m2
03:44 65.0 °F 63.2 °F 29.80 in Calm     94% 0.00 in 0 W/m2
03:50 65.0 °F 63.2 °F 29.80 in Calm     94% 0.00 in 0 W/m2
03:56 64.9 °F 63.1 °F 29.80 in Calm     94% 0.00 in 0 W/m2
04:02 64.9 °F 63.1 °F 29.80 in Calm     94% 0.00 in 0 W/m2
04:08 64.8 °F 63.0 °F 29.79 in Calm   1.0 mph 94% 0.00 in 0 W/m2
04:14 64.9 °F 63.1 °F 29.79 in SSW 1.0 mph 1.0 mph 94% 0.00 in 0 W/m2
04:20 65.6 °F 63.8 °F 29.80 in SSW 1.0 mph 1.0 mph 94% 0.00 in 0 W/m2
04:26 65.6 °F 63.8 °F 29.80 in Calm   1.0 mph 94% 0.00 in 0 W/m2
04:32 65.8 °F 64.3 °F 29.79 in East 1.0 mph 1.0 mph 95% 0.00 in 0 W/m2
04:38 66.1 °F 64.6 °F 29.79 in East 1.0 mph 1.0 mph 95% 0.00 in 0 W/m2
04:44 66.2 °F 64.7 °F 29.79 in East 1.0 mph 1.0 mph 95% 0.00 in 0 W/m2
04:50 66.1 °F 64.6 °F 29.80 in Calm     95% 0.00 in 0 W/m2
04:56 66.1 °F 64.6 °F 29.80 in Calm     95% 0.00 in 0 W/m2
05:02 66.2 °F 64.7 °F 29.80 in Calm     95% 0.00 in 0 W/m2
05:08 66.2 °F 64.7 °F 29.80 in Calm     95% 0.00 in 0 W/m2
05:14 66.3 °F 64.8 °F 29.80 in Calm     95% 0.00 in 0 W/m2
05:20 66.3 °F 64.8 °F 29.80 in Calm     95% 0.00 in 0 W/m2
05:26 66.3 °F 64.8 °F 29.80 in Calm     95% 0.00 in 0 W/m2
05:32 66.5 °F 65.0 °F 29.81 in Calm   1.0 mph 95% 0.00 in 0 W/m2
05:38 66.7 °F 65.2 °F 29.82 in East 1.0 mph 2.0 mph 95% 0.00 in 5 W/m2
05:44 66.8 °F 65.3 °F 29.82 in Calm   1.0 mph 95% 0.00 in 0 W/m2
05:50 66.9 °F 65.4 °F 29.83 in ESE 1.0 mph 1.0 mph 95% 0.00 in 0 W/m2
05:56 66.8 °F 65.3 °F 29.82 in ESE 1.0 mph 2.0 mph 95% 0.21 in 5 W/m2
06:02 66.8 °F 65.3 °F 29.82 in Calm     95% 0.13 in 5 W/m2
06:08 66.8 °F 65.3 °F 29.83 in Calm     95% 0.08 in 5 W/m2
06:14 66.9 °F 65.4 °F 29.84 in Calm   2.0 mph 95% 0.05 in 5 W/m2
06:20 66.9 °F 65.4 °F 29.84 in ESE 1.0 mph 2.0 mph 95% 0.00 in 5 W/m2
06:26 66.8 °F 65.3 °F 29.83 in Calm   2.0 mph 95% 0.00 in 5 W/m2
06:32 66.7 °F 65.2 °F 29.83 in ENE 1.0 mph 2.0 mph 95% 0.12 in 0 W/m2
06:38 66.6 °F 65.1 °F 29.82 in Calm   2.0 mph 95% 0.23 in 5 W/m2
06:44 66.6 °F 65.1 °F 29.81 in ENE 1.0 mph 3.0 mph 95% 0.08 in 5 W/m2
06:50 66.7 °F 65.2 °F 29.81 in ENE 1.0 mph 1.0 mph 95% 0.07 in 9 W/m2
06:56 66.7 °F 65.2 °F 29.80 in ENE 1.0 mph 2.0 mph 95% 0.07 in 12 W/m2
07:02 66.8 °F 65.3 °F 29.80 in ENE 1.0 mph 1.0 mph 95% 0.06 in 33 W/m2
07:08 66.8 °F 65.3 °F 29.79 in ENE 1.0 mph 3.0 mph 95% 0.04 in 37 W/m2
07:14 66.9 °F 65.4 °F 29.79 in ENE 1.0 mph 3.0 mph 95% 0.00 in 35 W/m2
07:20 67.0 °F 65.5 °F 29.80 in ENE 1.0 mph 1.0 mph 95% 0.00 in 35 W/m2
07:28 67.2 °F 65.7 °F 29.80 in Calm   2.0 mph 95% 0.00 in 37 W/m2
07:34 67.2 °F 65.7 °F 29.80 in Calm   1.0 mph 95% 0.00 in 44 W/m2
07:40 67.3 °F 65.8 °F 29.80 in Calm   1.0 mph 95% 0.00 in 60 W/m2
07:46 67.4 °F 65.9 °F 29.80 in SE 1.0 mph 1.0 mph 95% 0.00 in 47 W/m2
07:52 67.6 °F 66.1 °F 29.81 in SE 1.0 mph 1.0 mph 95% 0.00 in 44 W/m2
07:58 67.8 °F 66.3 °F 29.82 in Calm   2.0 mph 95% 0.00 in 26 W/m2
08:04 67.9 °F 66.4 °F 29.82 in South 1.0 mph 3.0 mph 95% 0.00 in 11 W/m2
08:10 68.0 °F 66.5 °F 29.82 in South 3.0 mph 3.0 mph 95% 0.19 in 11 W/m2
08:16 67.8 °F 66.3 °F 29.82 in SE 4.0 mph 9.0 mph 95% 0.26 in 11 W/m2
08:22 67.4 °F 65.9 °F 29.82 in SSW 4.0 mph 4.0 mph 95% 0.14 in 18 W/m2
08:28 67.4 °F 65.9 °F 29.82 in SSW 3.0 mph 4.0 mph 95% 0.12 in 16 W/m2
08:34 67.1 °F 65.6 °F 29.82 in SSW 3.0 mph 4.0 mph 95% 1.30 in 16 W/m2
08:40 66.8 °F 65.3 °F 29.83 in SSW 3.0 mph 3.0 mph 95% 0.67 in 16 W/m2
08:46 66.8 °F 65.3 °F 29.82 in SSE 3.0 mph 5.0 mph 95% 0.56 in 19 W/m2
08:52 66.9 °F 65.4 °F 29.82 in SSE 2.0 mph 2.0 mph 95% 0.18 in 14 W/m2
08:58 66.9 °F 65.4 °F 29.82 in SSE 2.0 mph 2.0 mph 95% 0.07 in 21 W/m2
09:04 66.9 °F 65.4 °F 29.84 in WSW 1.0 mph 4.0 mph 95% 1.88 in 11 W/m2
09:10 66.7 °F 65.2 °F 29.83 in WSW 1.0 mph 1.0 mph 95% 0.62 in 19 W/m2
09:16 66.7 °F 65.2 °F 29.83 in WSW 1.0 mph 1.0 mph 95% 0.28 in 30 W/m2
09:22 66.8 °F 65.3 °F 29.83 in SSE 1.0 mph 3.0 mph 95% 0.38 in 26 W/m2
09:28 66.6 °F 65.1 °F 29.83 in SSE 2.0 mph 4.0 mph 95% 0.64 in 16 W/m2
09:34 66.5 °F 65.0 °F 29.83 in SSE 2.0 mph 3.0 mph 95% 0.36 in 18 W/m2
09:40 66.3 °F 64.5 °F 29.82 in SSE 2.0 mph 2.0 mph 94% 0.19 in 25 W/m2
09:46 66.2 °F 64.7 °F 29.82 in SSE 2.0 mph 5.0 mph 95% 0.13 in 56 W/m2
09:52 66.1 °F 64.6 °F 29.81 in SE 3.0 mph 3.0 mph 95% 0.06 in 62 W/m2
09:58 66.1 °F 64.6 °F 29.81 in SSE 3.0 mph 5.0 mph 95% 0.05 in 53 W/m2
10:04 66.2 °F 64.7 °F 29.81 in SE 4.0 mph 6.0 mph 95% 0.05 in 81 W/m2
10:10 66.3 °F 64.8 °F 29.80 in SE 4.0 mph 4.0 mph 95% 0.04 in 105 W/m2
10:18 66.6 °F 65.1 °F 29.80 in SSE 3.0 mph 4.0 mph 95% 0.00 in 114 W/m2
10:24 66.6 °F 65.1 °F 29.80 in SE 3.0 mph 5.0 mph 95% 0.00 in 102 W/m2
10:30 66.7 °F 65.2 °F 29.80 in SE 2.0 mph 2.0 mph 95% 0.00 in 26 W/m2
10:36 66.6 °F 65.1 °F 29.83 in SW 1.0 mph 3.0 mph 95% 0.80 in 9 W/m2
10:42 66.7 °F 65.2 °F 29.83 in NNE 2.0 mph 3.0 mph 95% 0.76 in 11 W/m2
10:48 66.5 °F 65.0 °F 29.82 in NNE 1.0 mph 3.0 mph 95% 0.23 in 32 W/m2
10:54 66.5 °F 65.0 °F 29.81 in SE 1.0 mph 3.0 mph 95% 0.15 in 81 W/m2
11:00 66.6 °F 65.1 °F 29.81 in East 1.0 mph 1.0 mph 95% 0.13 in 91 W/m2
11:06 66.7 °F 65.2 °F 29.80 in Calm   1.0 mph 95% 0.08 in 160 W/m2
11:12 67.1 °F 65.6 °F 29.80 in East 1.0 mph 3.0 mph 95% 0.04 in 146 W/m2
11:18 67.1 °F 65.6 °F 29.80 in ESE 1.0 mph 3.0 mph 95% 0.00 in 113 W/m2
11:24 67.2 °F 65.7 °F 29.80 in ESE 1.0 mph 1.0 mph 95% 0.00 in 114 W/m2
11:30 67.3 °F 65.8 °F 29.80 in ESE 1.0 mph 1.0 mph 95% 0.00 in 156 W/m2
11:36 67.6 °F 65.8 °F 29.80 in SE 1.0 mph 2.0 mph 94% 0.00 in 199 W/m2
11:42 67.8 °F 66.3 °F 29.79 in SE 2.0 mph 2.0 mph 95% 0.00 in 251 W/m2
11:48 67.8 °F 66.0 °F 29.79 in ENE 2.0 mph 3.0 mph 94% 0.00 in 214 W/m2
11:54 67.9 °F 66.1 °F 29.79 in SSE 2.0 mph 4.0 mph 94% 0.00 in 211 W/m2
12:00 68.1 °F 66.3 °F 29.78 in SE 3.0 mph 3.0 mph 94% 0.00 in 244 W/m2
12:06 68.3 °F 66.5 °F 29.79 in SE 1.0 mph 3.0 mph 94% 0.00 in 301 W/m2
12:12 68.6 °F 66.8 °F 29.79 in SSE 1.0 mph 1.0 mph 94% 0.00 in 383 W/m2
12:18 69.4 °F 67.6 °F 29.78 in East 2.0 mph 2.0 mph 94% 0.00 in 573 W/m2
12:24 70.0 °F 68.2 °F 29.78 in NNE 1.0 mph 3.0 mph 94% 0.00 in 418 W/m2
12:30 70.2 °F 68.1 °F 29.78 in SSE 1.0 mph 1.0 mph 93% 0.00 in 441 W/m2
12:36 70.5 °F 68.1 °F 29.78 in SE 1.0 mph 2.0 mph 92% 0.00 in 425 W/m2
12:42 70.8 °F 68.0 °F 29.78 in SE 2.0 mph 4.0 mph 91% 0.00 in 452 W/m2
12:48 71.2 °F 68.4 °F 29.77 in SE 2.0 mph 4.0 mph 91% 0.00 in 411 W/m2
12:54 71.5 °F 68.4 °F 29.77 in East 2.0 mph 3.0 mph 90% 0.00 in 383 W/m2
13:00 71.6 °F 68.2 °F 29.77 in ENE 2.0 mph 3.0 mph 89% 0.00 in 381 W/m2
13:06 72.2 °F 69.1 °F 29.77 in East 2.0 mph 3.0 mph 90% 0.00 in 424 W/m2
13:12 73.0 °F 69.9 °F 29.77 in SSE 2.0 mph 4.0 mph 90% 0.00 in 608 W/m2
13:18 73.4 °F 69.6 °F 29.77 in East 1.0 mph 4.0 mph 88% 0.00 in 418 W/m2
13:24 73.5 °F 69.4 °F 29.77 in SE 1.0 mph 2.0 mph 87% 0.00 in 494 W/m2
13:30 74.4 °F 70.3 °F 29.77 in Calm     87% 0.00 in 522 W/m2
13:36 74.4 °F 69.2 °F 29.77 in SSE 1.0 mph 2.0 mph 84% 0.00 in 587 W/m2
13:42 75.1 °F 69.6 °F 29.76 in SSE 1.0 mph 1.0 mph 83% 0.00 in 529 W/m2
13:48 75.5 °F 70.0 °F 29.76 in NNW 1.0 mph 1.0 mph 83% 0.00 in 243 W/m2
13:54 75.1 °F 70.3 °F 29.75 in NNW 1.0 mph 1.0 mph 85% 0.00 in 214 W/m2
14:00 74.6 °F 69.4 °F 29.75 in NNW 1.0 mph 1.0 mph 84% 0.00 in 146 W/m2
14:06 74.1 °F 69.0 °F 29.75 in NNW 1.0 mph 2.0 mph 84% 0.00 in 104 W/m2
14:12 73.6 °F 69.2 °F 29.75 in North 2.0 mph 3.0 mph 86% 0.00 in 88 W/m2
14:18 73.2 °F 69.4 °F 29.75 in North 1.0 mph 3.0 mph 88% 0.11 in 56 W/m2
14:24 72.9 °F 69.5 °F 29.74 in NNW 1.0 mph 1.0 mph 89% 0.07 in 40 W/m2
14:30 72.3 °F 68.9 °F 29.75 in NNW 1.0 mph 1.0 mph 89% 0.17 in 19 W/m2
14:36 71.8 °F 68.7 °F 29.75 in NNW 1.0 mph 3.0 mph 90% 0.19 in 11 W/m2
14:42 71.4 °F 68.3 °F 29.74 in NNE 1.0 mph 1.0 mph 90% 0.06 in 11 W/m2
14:48 70.9 °F 68.1 °F 29.75 in NNE 1.0 mph 1.0 mph 91% 0.05 in 12 W/m2
14:56 70.6 °F 67.8 °F 29.75 in Calm   1.0 mph 91% 0.05 in 28 W/m2
15:02 70.3 °F 67.9 °F 29.74 in Calm   1.0 mph 92% 0.22 in 84 W/m2
15:08 70.3 °F 67.9 °F 29.75 in Calm   1.0 mph 92% 0.08 in 56 W/m2
15:14 70.2 °F 67.8 °F 29.75 in Calm     92% 0.08 in 114 W/m2
15:20 70.7 °F 68.6 °F 29.74 in Calm     93% 0.05 in 657 W/m2
15:26 71.4 °F 69.3 °F 29.75 in Calm     93% 0.00 in 385 W/m2
15:32 71.9 °F 69.8 °F 29.75 in Calm     93% 0.00 in 192 W/m2
15:38 72.3 °F 69.8 °F 29.75 in Calm     92% 0.00 in 188 W/m2
15:44 72.6 °F 70.1 °F 29.74 in Calm     92% 0.00 in 200 W/m2
15:50 72.5 °F 70.0 °F 29.75 in Calm   1.0 mph 92% 0.00 in 144 W/m2
15:56 72.7 °F 70.2 °F 29.75 in Calm   1.0 mph 92% 0.00 in 482 W/m2
16:02 73.3 °F 70.5 °F 29.74 in Calm   1.0 mph 91% 0.00 in 174 W/m2
16:08 74.2 °F 71.4 °F 29.74 in SW 1.0 mph 2.0 mph 91% 0.00 in 371 W/m2
17:20 77.1 °F 70.1 °F 29.75 in WSW 2.0 mph 2.0 mph 79% 0.00 in 137 W/m2
17:25 77.2 °F 69.8 °F 29.75 in SSW 1.0 mph 2.0 mph 78% 0.00 in 193 W/m2
17:32 77.2 °F 69.4 °F 29.75 in SW 1.0 mph 4.0 mph 77% 0.00 in 86 W/m2
17:38 77.0 °F 69.2 °F 29.75 in West 1.0 mph 4.0 mph 77% 0.00 in 167 W/m2
17:43 76.9 °F 69.5 °F 29.75 in SW 2.0 mph 4.0 mph 78% 0.00 in 211 W/m2
17:49 77.3 °F 70.6 °F 29.75 in SW 2.0 mph 2.0 mph 80% 0.00 in 171 W/m2
17:55 77.4 °F 70.0 °F 29.75 in Calm   2.0 mph 78% 0.00 in 120 W/m2
18:02 77.0 °F 69.6 °F 29.76 in SW 1.0 mph 2.0 mph 78% 0.00 in 107 W/m2
18:08 76.7 °F 68.9 °F 29.76 in WSW 1.0 mph 2.0 mph 77% 0.00 in 135 W/m2
18:13 76.6 °F 69.2 °F 29.76 in SSW 1.0 mph 2.0 mph 78% 0.00 in 100 W/m2
18:19 76.6 °F 69.6 °F 29.77 in SW 1.0 mph 1.0 mph 79% 0.00 in 114 W/m2
18:25 76.7 °F 69.7 °F 29.77 in Calm   2.0 mph 79% 0.00 in 202 W/m2
18:31 77.1 °F 69.7 °F 29.76 in South 1.0 mph 3.0 mph 78% 0.00 in 77 W/m2
18:38 77.3 °F 69.5 °F 29.77 in WSW 3.0 mph 7.0 mph 77% 0.00 in 60 W/m2
18:43 77.3 °F 69.1 °F 29.77 in SW 3.0 mph 3.0 mph 76% 0.00 in 51 W/m2
18:49 77.1 °F 68.9 °F 29.77 in WNW 2.0 mph 5.0 mph 76% 0.00 in 53 W/m2
18:55 76.7 °F 68.2 °F 29.77 in West 2.0 mph 5.0 mph 75% 0.00 in 49 W/m2
19:02 76.1 °F 67.2 °F 29.77 in WSW 1.0 mph 2.0 mph 74% 0.00 in 62 W/m2
19:08 75.9 °F 67.0 °F 29.77 in WNW 1.0 mph 4.0 mph 74% 0.00 in 102 W/m2
19:13 76.0 °F 67.1 °F 29.77 in NW 2.0 mph 2.0 mph 74% 0.00 in 109 W/m2
19:19 76.3 °F 66.6 °F 29.77 in SW 2.0 mph 6.0 mph 72% 0.00 in 51 W/m2
19:25 76.2 °F 66.9 °F 29.77 in SW 2.0 mph 6.0 mph 73% 0.00 in 35 W/m2
19:31 75.9 °F 66.6 °F 29.77 in SSW 1.0 mph 2.0 mph 73% 0.00 in 44 W/m2
19:38 75.7 °F 66.4 °F 29.78 in WSW 2.0 mph 10.0 mph 73% 0.00 in 35 W/m2
19:43 75.5 °F 66.2 °F 29.78 in NW 3.0 mph 4.0 mph 73% 0.00 in 33 W/m2
19:49 75.1 °F 66.2 °F 29.78 in SW 2.0 mph 2.0 mph 74% 0.00 in 33 W/m2
19:55 74.8 °F 66.3 °F 29.77 in SW 2.0 mph 3.0 mph 75% 0.00 in 30 W/m2
20:02 74.5 °F 66.1 °F 29.77 in WSW 2.0 mph 2.0 mph 75% 0.00 in 23 W/m2
20:08 74.3 °F 65.9 °F 29.77 in WSW 1.0 mph 2.0 mph 75% 0.00 in 19 W/m2
20:13 74.1 °F 65.7 °F 29.77 in WSW 2.0 mph 3.0 mph 75% 0.00 in 18 W/m2
20:19 73.8 °F 65.8 °F 29.77 in South 2.0 mph 2.0 mph 76% 0.00 in 16 W/m2
20:25 73.6 °F 65.6 °F 29.76 in SW 2.0 mph 4.0 mph 76% 0.00 in 12 W/m2
20:32 73.5 °F 65.5 °F 29.76 in WSW 3.0 mph 3.0 mph 76% 0.00 in 9 W/m2
20:38 73.4 °F 65.4 °F 29.76 in WSW 3.0 mph 5.0 mph 76% 0.00 in 9 W/m2
20:43 73.2 °F 65.6 °F 29.76 in SW 2.0 mph 3.0 mph 77% 0.00 in 7 W/m2
20:49 72.9 °F 65.6 °F 29.76 in SW 1.0 mph 1.0 mph 78% 0.00 in 5 W/m2
20:55 72.6 °F 65.7 °F 29.77 in WSW 1.0 mph 1.0 mph 79% 0.00 in 0 W/m2
21:02 72.4 °F 65.5 °F 29.77 in WSW 2.0 mph 2.0 mph 79% 0.00 in 0 W/m2
21:08 72.2 °F 65.7 °F 29.77 in WSW 1.0 mph 2.0 mph 80% 0.00 in 0 W/m2
21:13 71.9 °F 65.4 °F 29.78 in WSW 1.0 mph 4.0 mph 80% 0.00 in 0 W/m2
21:19 71.6 °F 65.5 °F 29.78 in Calm     81% 0.00 in 0 W/m2
21:25 71.4 °F 65.3 °F 29.78 in WSW 1.0 mph 3.0 mph 81% 0.00 in 0 W/m2
21:31 71.6 °F 65.5 °F 29.79 in WSW 2.0 mph 2.0 mph 81% 0.00 in 0 W/m2
21:38 71.6 °F 65.5 °F 29.79 in WSW 2.0 mph 2.0 mph 81% 0.00 in 0 W/m2
21:43 71.5 °F 65.4 °F 29.80 in WSW 1.0 mph 6.0 mph 81% 0.00 in 0 W/m2
21:49 71.3 °F 65.2 °F 29.80 in SW 1.0 mph 1.0 mph 81% 0.00 in 0 W/m2
21:55 71.2 °F 65.1 °F 29.80 in WSW 1.0 mph 2.0 mph 81% 0.00 in 0 W/m2
22:02 71.3 °F 65.2 °F 29.81 in WSW 1.0 mph 2.0 mph 81% 0.00 in 0 W/m2
22:09 71.2 °F 65.1 °F 29.82 in SW 1.0 mph 2.0 mph 81% 0.00 in 0 W/m2
22:15 71.2 °F 65.1 °F 29.82 in SW 2.0 mph 2.0 mph 81% 0.00 in 0 W/m2
22:22 71.2 °F 65.1 °F 29.82 in SW 1.0 mph 1.0 mph 81% 0.00 in 0 W/m2
22:28 71.1 °F 65.3 °F 29.82 in SW 1.0 mph 1.0 mph 82% 0.00 in 0 W/m2
22:33 71.0 °F 65.2 °F 29.82 in SW 1.0 mph 1.0 mph 82% 0.00 in 0 W/m2
22:39 71.0 °F 65.2 °F 29.82 in SW 1.0 mph 3.0 mph 82% 0.00 in 0 W/m2
22:45 71.0 °F 65.2 °F 29.82 in SSW 1.0 mph 3.0 mph 82% 0.00 in 0 W/m2
22:51 71.0 °F 65.2 °F 29.83 in WSW 2.0 mph 3.0 mph 82% 0.00 in 0 W/m2
22:58 71.1 °F 65.0 °F 29.83 in WSW 2.0 mph 3.0 mph 81% 0.00 in 0 W/m2
23:03 71.0 °F 64.9 °F 29.83 in WSW 2.0 mph 2.0 mph 81% 0.00 in 0 W/m2
23:09 70.9 °F 64.8 °F 29.83 in SW 2.0 mph 2.0 mph 81% 0.00 in 0 W/m2
23:15 70.9 °F 64.8 °F 29.83 in SW 2.0 mph 4.0 mph 81% 0.00 in 0 W/m2
23:22 70.8 °F 64.7 °F 29.83 in WSW 1.0 mph 2.0 mph 81% 0.00 in 0 W/m2
23:28 70.6 °F 64.5 °F 29.84 in SW 1.0 mph 2.0 mph 81% 0.00 in 0 W/m2
23:33 70.3 °F 64.2 °F 29.84 in SW 1.0 mph 1.0 mph 81% 0.00 in 0 W/m2
23:39 70.1 °F 64.0 °F 29.85 in Calm     81% 0.00 in 0 W/m2
23:45 69.9 °F 63.8 °F 29.84 in Calm     81% 0.00 in 0 W/m2
23:52 69.7 °F 63.6 °F 29.84 in Calm     81% 0.00 in 0 W/m2
23:58 69.3 °F 63.6 °F 29.85 in Calm     82% 0.00 in 0 W/m2
Country Meadow, Clay, NY, USA
Compliments of Weather Underground - 2 mb